createdAt,value
2023-03-22T00:01:02.207Z,11.3
2023-03-22T00:21:08.982Z,11.2
2023-03-22T00:45:30.313Z,10.9
2023-03-22T01:01:06.836Z,10.5
2023-03-22T01:25:27.208Z,10.2
2023-03-22T01:41:06.700Z,9.9
2023-03-22T02:00:58.968Z,9.7
2023-03-22T02:21:02.334Z,9.4
2023-03-22T02:40:58.807Z,9.1
2023-03-22T03:01:03.348Z,8.9
2023-03-22T03:21:00.149Z,8.7
2023-03-22T03:40:59.876Z,8.4
2023-03-22T04:00:59.330Z,8.3
2023-03-22T04:20:58.865Z,8.1
2023-03-22T04:40:59.434Z,8
2023-03-22T05:01:33.009Z,7.9
2023-03-22T05:21:00.588Z,7.7
2023-03-22T05:41:27.347Z,7.4
2023-03-22T06:01:31.244Z,7.4
2023-03-22T06:21:27.863Z,7.4
2023-03-22T06:41:34.233Z,7.8
2023-03-22T07:01:33.345Z,8.1
2023-03-22T07:21:25.794Z,8.1
2023-03-22T07:41:25.146Z,8.6
2023-03-22T08:01:30.997Z,9.5
2023-03-22T08:21:32.380Z,9.9
2023-03-22T08:40:57.984Z,9.9
2023-03-22T09:01:34.044Z,10.4
2023-03-22T09:21:25.685Z,11
2023-03-22T09:41:31.396Z,11.6
2023-03-22T10:01:25.952Z,12.1
2023-03-22T10:21:32.581Z,13
2023-03-22T10:41:24.143Z,12.9
2023-03-22T11:01:38.170Z,14
2023-03-22T11:21:26.935Z,14
2023-03-22T11:41:29.008Z,14.8
2023-03-22T12:01:32.473Z,15.3
2023-03-22T12:21:26.282Z,15.3
2023-03-22T12:41:33.091Z,16.2
2023-03-22T13:01:31.929Z,16.4
2023-03-22T13:21:31.259Z,16.9
2023-03-22T13:41:37.166Z,17.2
2023-03-22T14:01:30.422Z,17.7
2023-03-22T14:21:28.965Z,18.1
2023-03-22T15:01:24.915Z,18
2023-03-22T15:21:02.637Z,18.8
2023-03-22T15:41:29.834Z,19.7
2023-03-22T16:01:29.186Z,20.1
2023-03-22T16:21:32.591Z,19.9
2023-03-22T16:41:28.340Z,19.8
2023-03-22T17:01:33.382Z,18
2023-03-22T17:21:29.698Z,18
2023-03-22T17:41:31.299Z,16.9
2023-03-22T18:00:58.939Z,16.9
2023-03-22T18:21:16.082Z,15.9
2023-03-22T19:00:58.151Z,15.3
2023-03-22T19:21:42.459Z,14.5
2023-03-22T19:42:22.318Z,14.1
2023-03-22T20:01:05.119Z,13.8
2023-03-22T20:20:57.719Z,14
2023-03-22T20:40:57.771Z,14
2023-03-22T21:00:57.455Z,14
2023-03-22T21:20:57.739Z,13.7
2023-03-22T21:40:58.948Z,13.5
2023-03-22T22:00:58.785Z,13.2
2023-03-22T22:21:01.874Z,13
2023-03-22T22:41:01.074Z,12.6
2023-03-22T23:01:01.857Z,12.6
2023-03-22T23:20:58.511Z,12.5
2023-03-22T23:40:58.558Z,12.2
